sensor_id;sensor_type;location;lat;lon;timestamp;P1;durP1;ratioP1;P2;durP2;ratioP2
41293;SDS011;27037;52.010;4.446;2023-04-03T00:01:28;4.00;;;1.80;;
41293;SDS011;27037;52.010;4.446;2023-04-03T00:03:53;4.05;;;1.75;;
41293;SDS011;27037;52.010;4.446;2023-04-03T00:06:20;3.55;;;1.80;;
41293;SDS011;27037;52.010;4.446;2023-04-03T00:08:46;2.72;;;1.40;;
41293;SDS011;27037;52.010;4.446;2023-04-03T00:11:12;4.10;;;1.63;;
41293;SDS011;27037;52.010;4.446;2023-04-03T00:13:38;3.22;;;1.80;;
41293;SDS011;27037;52.010;4.446;2023-04-03T00:16:04;3.55;;;1.70;;
41293;SDS011;27037;52.010;4.446;2023-04-03T00:18:30;3.10;;;1.60;;
41293;SDS011;27037;52.010;4.446;2023-04-03T00:20:56;3.30;;;1.83;;
41293;SDS011;27037;52.010;4.446;2023-04-03T00:23:22;3.33;;;1.95;;
41293;SDS011;27037;52.010;4.446;2023-04-03T00:25:48;3.03;;;1.52;;
41293;SDS011;27037;52.010;4.446;2023-04-03T00:28:15;2.97;;;1.75;;
41293;SDS011;27037;52.010;4.446;2023-04-03T00:30:40;4.30;;;1.70;;
41293;SDS011;27037;52.010;4.446;2023-04-03T00:33:06;5.28;;;1.70;;
41293;SDS011;27037;52.010;4.446;2023-04-03T00:35:34;3.25;;;1.80;;
41293;SDS011;27037;52.010;4.446;2023-04-03T00:38:00;5.25;;;1.83;;
41293;SDS011;27037;52.010;4.446;2023-04-03T00:40:26;4.43;;;1.67;;
41293;SDS011;27037;52.010;4.446;2023-04-03T00:42:55;3.70;;;1.90;;
41293;SDS011;27037;52.010;4.446;2023-04-03T00:45:29;3.72;;;2.10;;
41293;SDS011;27037;52.010;4.446;2023-04-03T00:48:03;4.65;;;1.70;;
41293;SDS011;27037;52.010;4.446;2023-04-03T00:50:32;4.40;;;1.90;;
41293;SDS011;27037;52.010;4.446;2023-04-03T00:53:00;3.20;;;1.77;;
41293;SDS011;27037;52.010;4.446;2023-04-03T00:55:26;4.80;;;1.92;;
41293;SDS011;27037;52.010;4.446;2023-04-03T00:57:52;3.85;;;1.67;;
41293;SDS011;27037;52.010;4.446;2023-04-03T01:00:20;4.00;;;2.03;;
41293;SDS011;27037;52.010;4.446;2023-04-03T01:02:48;5.35;;;1.75;;
41293;SDS011;27037;52.010;4.446;2023-04-03T01:05:14;3.88;;;2.38;;
41293;SDS011;27037;52.010;4.446;2023-04-03T01:07:41;6.78;;;2.42;;
41293;SDS011;27037;52.010;4.446;2023-04-03T01:10:09;5.07;;;2.65;;
41293;SDS011;27037;52.010;4.446;2023-04-03T01:12:39;4.88;;;2.47;;
41293;SDS011;27037;52.010;4.446;2023-04-03T01:15:11;6.97;;;2.63;;
41293;SDS011;27037;52.010;4.446;2023-04-03T01:20:35;7.05;;;2.80;;
41293;SDS011;27037;52.010;4.446;2023-04-03T01:23:56;4.18;;;2.20;;
41293;SDS011;27037;52.010;4.446;2023-04-03T01:26:12;4.18;;;2.10;;
41293;SDS011;27037;52.010;4.446;2023-04-03T01:28:38;3.40;;;2.22;;
41293;SDS011;27037;52.010;4.446;2023-04-03T01:33:36;4.55;;;2.20;;
41293;SDS011;27037;52.010;4.446;2023-04-03T01:36:03;7.32;;;2.30;;
41293;SDS011;27037;52.010;4.446;2023-04-03T01:38:29;4.80;;;2.42;;
41293;SDS011;27037;52.010;4.446;2023-04-03T01:40:55;4.18;;;2.10;;
41293;SDS011;27037;52.010;4.446;2023-04-03T01:43:21;4.05;;;2.35;;
41293;SDS011;27037;52.010;4.446;2023-04-03T01:45:47;3.95;;;2.17;;
41293;SDS011;27037;52.010;4.446;2023-04-03T01:48:14;3.95;;;2.35;;
41293;SDS011;27037;52.010;4.446;2023-04-03T01:50:40;3.38;;;2.10;;
41293;SDS011;27037;52.010;4.446;2023-04-03T01:53:06;5.07;;;2.17;;
41293;SDS011;27037;52.010;4.446;2023-04-03T01:55:32;6.38;;;2.50;;
41293;SDS011;27037;52.010;4.446;2023-04-03T01:57:58;4.15;;;2.10;;
41293;SDS011;27037;52.010;4.446;2023-04-03T02:00:23;7.65;;;2.28;;
41293;SDS011;27037;52.010;4.446;2023-04-03T02:02:49;4.82;;;2.13;;
41293;SDS011;27037;52.010;4.446;2023-04-03T02:05:15;5.50;;;2.05;;
41293;SDS011;27037;52.010;4.446;2023-04-03T02:07:40;4.97;;;2.03;;
41293;SDS011;27037;52.010;4.446;2023-04-03T02:10:06;5.78;;;2.20;;
41293;SDS011;27037;52.010;4.446;2023-04-03T02:12:32;5.22;;;2.10;;
41293;SDS011;27037;52.010;4.446;2023-04-03T02:14:58;4.30;;;2.10;;
41293;SDS011;27037;52.010;4.446;2023-04-03T02:17:23;5.65;;;2.40;;
41293;SDS011;27037;52.010;4.446;2023-04-03T02:19:49;3.67;;;2.40;;
41293;SDS011;27037;52.010;4.446;2023-04-03T02:22:15;3.90;;;2.15;;
41293;SDS011;27037;52.010;4.446;2023-04-03T02:24:41;4.03;;;2.20;;
41293;SDS011;27037;52.010;4.446;2023-04-03T02:27:06;3.80;;;2.20;;
41293;SDS011;27037;52.010;4.446;2023-04-03T02:29:32;4.90;;;2.20;;
41293;SDS011;27037;52.010;4.446;2023-04-03T02:31:58;6.72;;;2.50;;
41293;SDS011;27037;52.010;4.446;2023-04-03T02:34:23;5.47;;;2.33;;
41293;SDS011;27037;52.010;4.446;2023-04-03T02:36:49;5.30;;;2.55;;
41293;SDS011;27037;52.010;4.446;2023-04-03T02:39:15;4.15;;;2.40;;
41293;SDS011;27037;52.010;4.446;2023-04-03T02:41:41;4.97;;;2.50;;
41293;SDS011;27037;52.010;4.446;2023-04-03T02:44:08;5.18;;;2.67;;
41293;SDS011;27037;52.010;4.446;2023-04-03T02:46:35;5.60;;;2.65;;
41293;SDS011;27037;52.010;4.446;2023-04-03T02:49:00;3.08;;;2.33;;
41293;SDS011;27037;52.010;4.446;2023-04-03T02:51:26;5.10;;;2.75;;
41293;SDS011;27037;52.010;4.446;2023-04-03T02:53:52;5.38;;;2.40;;
41293;SDS011;27037;52.010;4.446;2023-04-03T02:56:17;4.13;;;2.28;;
41293;SDS011;27037;52.010;4.446;2023-04-03T02:58:44;4.95;;;2.50;;
41293;SDS011;27037;52.010;4.446;2023-04-03T03:01:10;5.25;;;2.15;;
41293;SDS011;27037;52.010;4.446;2023-04-03T03:03:35;4.90;;;2.40;;
41293;SDS011;27037;52.010;4.446;2023-04-03T03:06:05;5.28;;;2.20;;
41293;SDS011;27037;52.010;4.446;2023-04-03T03:08:35;4.65;;;2.40;;
41293;SDS011;27037;52.010;4.446;2023-04-03T03:11:01;5.03;;;2.25;;
41293;SDS011;27037;52.010;4.446;2023-04-03T03:13:28;4.97;;;2.08;;
41293;SDS011;27037;52.010;4.446;2023-04-03T03:15:53;4.88;;;2.35;;
41293;SDS011;27037;52.010;4.446;2023-04-03T03:18:19;5.28;;;2.70;;
41293;SDS011;27037;52.010;4.446;2023-04-03T03:20:45;5.93;;;2.22;;
41293;SDS011;27037;52.010;4.446;2023-04-03T03:23:10;3.60;;;2.40;;
41293;SDS011;27037;52.010;4.446;2023-04-03T03:25:39;6.68;;;2.33;;
41293;SDS011;27037;52.010;4.446;2023-04-03T03:28:05;5.53;;;2.22;;
41293;SDS011;27037;52.010;4.446;2023-04-03T03:30:31;4.38;;;2.30;;
41293;SDS011;27037;52.010;4.446;2023-04-03T03:32:56;4.00;;;2.03;;
41293;SDS011;27037;52.010;4.446;2023-04-03T03:35:22;4.88;;;2.30;;
41293;SDS011;27037;52.010;4.446;2023-04-03T03:37:48;8.32;;;2.13;;
41293;SDS011;27037;52.010;4.446;2023-04-03T03:40:14;5.78;;;2.67;;
41293;SDS011;27037;52.010;4.446;2023-04-03T03:42:39;4.20;;;2.17;;
41293;SDS011;27037;52.010;4.446;2023-04-03T03:45:05;4.88;;;2.03;;
41293;SDS011;27037;52.010;4.446;2023-04-03T03:47:31;9.13;;;2.15;;
41293;SDS011;27037;52.010;4.446;2023-04-03T03:49:57;4.05;;;2.10;;
41293;SDS011;27037;52.010;4.446;2023-04-03T03:52:23;6.43;;;2.58;;
41293;SDS011;27037;52.010;4.446;2023-04-03T03:54:48;7.10;;;2.58;;
41293;SDS011;27037;52.010;4.446;2023-04-03T03:57:14;4.32;;;2.42;;
41293;SDS011;27037;52.010;4.446;2023-04-03T03:59:40;7.55;;;2.60;;
41293;SDS011;27037;52.010;4.446;2023-04-03T04:02:06;6.15;;;2.45;;
41293;SDS011;27037;52.010;4.446;2023-04-03T04:04:32;4.55;;;2.17;;
41293;SDS011;27037;52.010;4.446;2023-04-03T04:06:58;5.88;;;2.67;;
41293;SDS011;27037;52.010;4.446;2023-04-03T04:09:25;9.40;;;2.58;;
41293;SDS011;27037;52.010;4.446;2023-04-03T04:11:51;9.05;;;4.60;;
41293;SDS011;27037;52.010;4.446;2023-04-03T04:14:17;4.50;;;2.45;;
41293;SDS011;27037;52.010;4.446;2023-04-03T04:16:43;7.32;;;2.63;;
41293;SDS011;27037;52.010;4.446;2023-04-03T04:19:08;7.10;;;2.40;;
41293;SDS011;27037;52.010;4.446;2023-04-03T04:21:34;6.47;;;2.65;;
41293;SDS011;27037;52.010;4.446;2023-04-03T04:24:00;5.55;;;2.53;;
41293;SDS011;27037;52.010;4.446;2023-04-03T04:26:26;7.32;;;2.42;;
41293;SDS011;27037;52.010;4.446;2023-04-03T04:28:51;6.05;;;2.58;;
41293;SDS011;27037;52.010;4.446;2023-04-03T04:31:17;6.63;;;2.70;;
41293;SDS011;27037;52.010;4.446;2023-04-03T04:33:43;4.18;;;2.50;;
41293;SDS011;27037;52.010;4.446;2023-04-03T04:36:08;4.97;;;2.58;;
41293;SDS011;27037;52.010;4.446;2023-04-03T04:38:34;4.50;;;2.38;;
41293;SDS011;27037;52.010;4.446;2023-04-03T04:41:00;5.15;;;2.72;;
41293;SDS011;27037;52.010;4.446;2023-04-03T04:43:26;6.15;;;2.60;;
41293;SDS011;27037;52.010;4.446;2023-04-03T04:46:04;8.02;;;2.72;;
41293;SDS011;27037;52.010;4.446;2023-04-03T04:48:30;6.55;;;3.30;;
41293;SDS011;27037;52.010;4.446;2023-04-03T04:50:56;6.78;;;3.03;;
41293;SDS011;27037;52.010;4.446;2023-04-03T04:53:21;6.63;;;2.80;;
41293;SDS011;27037;52.010;4.446;2023-04-03T04:55:47;4.25;;;2.55;;
41293;SDS011;27037;52.010;4.446;2023-04-03T04:58:13;7.28;;;2.78;;
41293;SDS011;27037;52.010;4.446;2023-04-03T05:00:38;7.57;;;2.90;;
41293;SDS011;27037;52.010;4.446;2023-04-03T05:03:04;6.22;;;2.90;;
41293;SDS011;27037;52.010;4.446;2023-04-03T05:05:30;7.82;;;2.95;;
41293;SDS011;27037;52.010;4.446;2023-04-03T05:07:55;8.73;;;2.95;;
41293;SDS011;27037;52.010;4.446;2023-04-03T05:10:21;7.47;;;3.00;;
41293;SDS011;27037;52.010;4.446;2023-04-03T05:12:47;7.63;;;3.38;;
41293;SDS011;27037;52.010;4.446;2023-04-03T05:15:12;8.57;;;3.50;;
41293;SDS011;27037;52.010;4.446;2023-04-03T05:17:38;8.68;;;3.80;;
41293;SDS011;27037;52.010;4.446;2023-04-03T05:20:03;7.32;;;3.70;;
41293;SDS011;27037;52.010;4.446;2023-04-03T05:22:30;7.45;;;3.22;;
41293;SDS011;27037;52.010;4.446;2023-04-03T05:24:55;7.82;;;3.17;;
41293;SDS011;27037;52.010;4.446;2023-04-03T05:27:21;8.32;;;3.58;;
41293;SDS011;27037;52.010;4.446;2023-04-03T05:29:49;7.95;;;3.78;;
41293;SDS011;27037;52.010;4.446;2023-04-03T05:32:15;7.15;;;3.03;;
41293;SDS011;27037;52.010;4.446;2023-04-03T05:34:41;7.55;;;3.28;;
41293;SDS011;27037;52.010;4.446;2023-04-03T05:37:07;4.82;;;3.03;;
41293;SDS011;27037;52.010;4.446;2023-04-03T05:39:32;4.60;;;2.85;;
41293;SDS011;27037;52.010;4.446;2023-04-03T05:41:58;7.97;;;2.78;;
41293;SDS011;27037;52.010;4.446;2023-04-03T05:44:24;6.47;;;2.88;;
41293;SDS011;27037;52.010;4.446;2023-04-03T05:46:50;7.13;;;3.00;;
41293;SDS011;27037;52.010;4.446;2023-04-03T05:49:15;7.22;;;3.08;;
41293;SDS011;27037;52.010;4.446;2023-04-03T05:51:41;7.88;;;3.38;;
41293;SDS011;27037;52.010;4.446;2023-04-03T05:56:42;6.57;;;3.20;;
41293;SDS011;27037;52.010;4.446;2023-04-03T05:59:08;7.00;;;3.25;;
41293;SDS011;27037;52.010;4.446;2023-04-03T06:01:34;6.88;;;3.53;;
41293;SDS011;27037;52.010;4.446;2023-04-03T06:04:00;6.55;;;3.65;;
41293;SDS011;27037;52.010;4.446;2023-04-03T06:06:44;8.68;;;3.63;;
41293;SDS011;27037;52.010;4.446;2023-04-03T06:09:22;8.80;;;4.28;;
41293;SDS011;27037;52.010;4.446;2023-04-03T06:11:49;13.57;;;4.07;;
41293;SDS011;27037;52.010;4.446;2023-04-03T06:14:15;6.68;;;4.03;;
41293;SDS011;27037;52.010;4.446;2023-04-03T06:16:44;9.88;;;4.30;;
41293;SDS011;27037;52.010;4.446;2023-04-03T06:19:13;8.68;;;3.83;;
41293;SDS011;27037;52.010;4.446;2023-04-03T06:21:38;10.80;;;4.25;;
41293;SDS011;27037;52.010;4.446;2023-04-03T06:24:04;9.27;;;4.43;;
41293;SDS011;27037;52.010;4.446;2023-04-03T06:26:33;9.05;;;4.28;;
41293;SDS011;27037;52.010;4.446;2023-04-03T06:28:59;9.70;;;4.40;;
41293;SDS011;27037;52.010;4.446;2023-04-03T06:31:25;10.85;;;4.70;;
41293;SDS011;27037;52.010;4.446;2023-04-03T06:33:51;11.93;;;4.80;;
41293;SDS011;27037;52.010;4.446;2023-04-03T06:36:19;10.82;;;5.65;;
41293;SDS011;27037;52.010;4.446;2023-04-03T06:38:46;9.45;;;5.15;;
41293;SDS011;27037;52.010;4.446;2023-04-03T06:41:11;11.75;;;5.32;;
41293;SDS011;27037;52.010;4.446;2023-04-03T06:43:37;12.80;;;6.07;;
41293;SDS011;27037;52.010;4.446;2023-04-03T06:46:03;14.18;;;5.70;;
41293;SDS011;27037;52.010;4.446;2023-04-03T06:48:29;12.40;;;4.78;;
41293;SDS011;27037;52.010;4.446;2023-04-03T06:50:54;8.77;;;3.85;;
41293;SDS011;27037;52.010;4.446;2023-04-03T06:53:20;5.95;;;3.83;;
41293;SDS011;27037;52.010;4.446;2023-04-03T06:55:46;14.32;;;4.20;;
41293;SDS011;27037;52.010;4.446;2023-04-03T06:58:12;9.88;;;4.18;;
41293;SDS011;27037;52.010;4.446;2023-04-03T07:00:38;7.60;;;3.85;;
41293;SDS011;27037;52.010;4.446;2023-04-03T07:03:04;6.35;;;3.63;;
41293;SDS011;27037;52.010;4.446;2023-04-03T07:05:30;8.35;;;3.42;;
41293;SDS011;27037;52.010;4.446;2023-04-03T07:07:56;6.88;;;3.33;;
41293;SDS011;27037;52.010;4.446;2023-04-03T07:10:21;8.35;;;3.45;;
41293;SDS011;27037;52.010;4.446;2023-04-03T07:12:47;10.82;;;3.42;;
41293;SDS011;27037;52.010;4.446;2023-04-03T07:15:13;6.95;;;2.92;;
41293;SDS011;27037;52.010;4.446;2023-04-03T07:17:42;8.98;;;3.15;;
41293;SDS011;27037;52.010;4.446;2023-04-03T07:20:08;6.13;;;2.65;;
41293;SDS011;27037;52.010;4.446;2023-04-03T07:22:34;8.50;;;3.13;;
41293;SDS011;27037;52.010;4.446;2023-04-03T07:25:00;9.27;;;3.42;;
41293;SDS011;27037;52.010;4.446;2023-04-03T07:27:25;6.60;;;2.88;;
41293;SDS011;27037;52.010;4.446;2023-04-03T07:29:51;7.40;;;2.55;;
41293;SDS011;27037;52.010;4.446;2023-04-03T07:32:21;11.98;;;2.53;;
41293;SDS011;27037;52.010;4.446;2023-04-03T07:34:46;10.13;;;3.05;;
41293;SDS011;27037;52.010;4.446;2023-04-03T07:37:12;8.65;;;3.05;;
41293;SDS011;27037;52.010;4.446;2023-04-03T07:39:38;7.53;;;2.70;;
41293;SDS011;27037;52.010;4.446;2023-04-03T07:42:03;7.63;;;2.78;;
41293;SDS011;27037;52.010;4.446;2023-04-03T07:44:29;9.02;;;2.63;;
41293;SDS011;27037;52.010;4.446;2023-04-03T07:46:55;6.35;;;2.75;;
41293;SDS011;27037;52.010;4.446;2023-04-03T07:49:21;6.07;;;2.42;;
41293;SDS011;27037;52.010;4.446;2023-04-03T07:51:49;7.50;;;2.92;;
41293;SDS011;27037;52.010;4.446;2023-04-03T07:54:14;10.60;;;2.75;;
41293;SDS011;27037;52.010;4.446;2023-04-03T07:56:40;8.10;;;2.78;;
41293;SDS011;27037;52.010;4.446;2023-04-03T07:59:07;6.25;;;2.53;;
41293;SDS011;27037;52.010;4.446;2023-04-03T08:01:34;7.10;;;2.50;;
41293;SDS011;27037;52.010;4.446;2023-04-03T08:03:59;7.13;;;2.72;;
41293;SDS011;27037;52.010;4.446;2023-04-03T08:06:25;5.28;;;2.33;;
41293;SDS011;27037;52.010;4.446;2023-04-03T08:08:51;7.72;;;2.65;;
41293;SDS011;27037;52.010;4.446;2023-04-03T08:11:17;9.30;;;2.70;;
41293;SDS011;27037;52.010;4.446;2023-04-03T08:13:44;9.55;;;2.40;;
41293;SDS011;27037;52.010;4.446;2023-04-03T08:16:13;6.03;;;2.42;;
41293;SDS011;27037;52.010;4.446;2023-04-03T08:18:42;4.82;;;2.60;;
41293;SDS011;27037;52.010;4.446;2023-04-03T08:21:09;6.85;;;2.30;;
41293;SDS011;27037;52.010;4.446;2023-04-03T08:23:35;7.07;;;1.75;;
41293;SDS011;27037;52.010;4.446;2023-04-03T08:26:05;9.98;;;2.42;;
41293;SDS011;27037;52.010;4.446;2023-04-03T08:28:32;5.75;;;2.20;;
41293;SDS011;27037;52.010;4.446;2023-04-03T08:31:01;6.30;;;2.38;;
41293;SDS011;27037;52.010;4.446;2023-04-03T08:33:30;6.10;;;2.60;;
41293;SDS011;27037;52.010;4.446;2023-04-03T08:35:56;5.97;;;2.40;;
41293;SDS011;27037;52.010;4.446;2023-04-03T08:38:22;7.20;;;2.50;;
41293;SDS011;27037;52.010;4.446;2023-04-03T08:40:47;7.05;;;2.50;;
41293;SDS011;27037;52.010;4.446;2023-04-03T08:46:16;7.20;;;2.00;;
41293;SDS011;27037;52.010;4.446;2023-04-03T08:48:47;7.68;;;2.35;;
41293;SDS011;27037;52.010;4.446;2023-04-03T08:51:16;6.40;;;2.17;;
41293;SDS011;27037;52.010;4.446;2023-04-03T08:53:58;5.70;;;2.25;;
41293;SDS011;27037;52.010;4.446;2023-04-03T08:56:31;6.50;;;2.13;;
41293;SDS011;27037;52.010;4.446;2023-04-03T08:59:00;5.53;;;1.70;;
41293;SDS011;27037;52.010;4.446;2023-04-03T09:01:34;8.05;;;1.88;;
41293;SDS011;27037;52.010;4.446;2023-04-03T09:04:05;7.07;;;2.30;;
41293;SDS011;27037;52.010;4.446;2023-04-03T09:06:36;7.50;;;1.80;;
41293;SDS011;27037;52.010;4.446;2023-04-03T09:20:00;3.30;;;1.38;;
41293;SDS011;27037;52.010;4.446;2023-04-03T09:22:28;2.80;;;1.50;;
41293;SDS011;27037;52.010;4.446;2023-04-03T09:27:49;2.95;;;1.30;;
41293;SDS011;27037;52.010;4.446;2023-04-03T09:30:17;5.95;;;1.73;;
41293;SDS011;27037;52.010;4.446;2023-04-03T09:32:48;3.28;;;1.50;;
41293;SDS011;27037;52.010;4.446;2023-04-03T09:35:16;3.13;;;1.13;;
41293;SDS011;27037;52.010;4.446;2023-04-03T09:37:59;2.63;;;1.10;;
41293;SDS011;27037;52.010;4.446;2023-04-03T09:40:35;3.17;;;1.30;;
41293;SDS011;27037;52.010;4.446;2023-04-03T09:45:49;3.67;;;1.20;;
41293;SDS011;27037;52.010;4.446;2023-04-03T09:48:17;3.35;;;1.30;;
41293;SDS011;27037;52.010;4.446;2023-04-03T09:53:37;3.85;;;1.00;;
41293;SDS011;27037;52.010;4.446;2023-04-03T09:58:44;1.58;;;1.00;;
41293;SDS011;27037;52.010;4.446;2023-04-03T10:01:26;3.65;;;1.27;;
41293;SDS011;27037;52.010;4.446;2023-04-03T10:04:14;1.27;;;0.90;;
41293;SDS011;27037;52.010;4.446;2023-04-03T10:06:43;2.97;;;1.00;;
41293;SDS011;27037;52.010;4.446;2023-04-03T10:09:49;2.72;;;1.05;;
41293;SDS011;27037;52.010;4.446;2023-04-03T10:12:20;4.50;;;1.30;;
41293;SDS011;27037;52.010;4.446;2023-04-03T10:17:18;3.83;;;1.08;;
41293;SDS011;27037;52.010;4.446;2023-04-03T10:20:09;1.80;;;0.90;;
41293;SDS011;27037;52.010;4.446;2023-04-03T10:23:24;2.67;;;1.20;;
41293;SDS011;27037;52.010;4.446;2023-04-03T10:28:54;2.95;;;1.20;;
41293;SDS011;27037;52.010;4.446;2023-04-03T10:31:38;3.28;;;1.10;;
41293;SDS011;27037;52.010;4.446;2023-04-03T10:37:12;4.15;;;1.27;;
41293;SDS011;27037;52.010;4.446;2023-04-03T10:42:43;1.90;;;0.98;;
41293;SDS011;27037;52.010;4.446;2023-04-03T10:55:38;2.95;;;1.15;;
41293;SDS011;27037;52.010;4.446;2023-04-03T10:58:06;1.88;;;0.90;;
41293;SDS011;27037;52.010;4.446;2023-04-03T11:00:45;1.88;;;0.75;;
41293;SDS011;27037;52.010;4.446;2023-04-03T11:03:23;1.98;;;0.90;;
41293;SDS011;27037;52.010;4.446;2023-04-03T11:06:02;2.42;;;0.82;;
41293;SDS011;27037;52.010;4.446;2023-04-03T11:11:25;2.63;;;0.98;;
41293;SDS011;27037;52.010;4.446;2023-04-03T11:13:57;3.17;;;1.10;;
41293;SDS011;27037;52.010;4.446;2023-04-03T11:16:28;3.25;;;0.75;;
41293;SDS011;27037;52.010;4.446;2023-04-03T11:18:59;1.17;;;0.80;;
41293;SDS011;27037;52.010;4.446;2023-04-03T11:21:47;1.80;;;0.88;;
41293;SDS011;27037;52.010;4.446;2023-04-03T11:24:24;2.50;;;1.00;;
41293;SDS011;27037;52.010;4.446;2023-04-03T11:26:52;2.20;;;1.00;;
41293;SDS011;27037;52.010;4.446;2023-04-03T11:29:21;2.10;;;1.13;;
41293;SDS011;27037;52.010;4.446;2023-04-03T11:34:46;1.27;;;0.80;;
41293;SDS011;27037;52.010;4.446;2023-04-03T11:37:29;3.70;;;1.20;;
41293;SDS011;27037;52.010;4.446;2023-04-03T11:42:35;2.10;;;0.80;;
41293;SDS011;27037;52.010;4.446;2023-04-03T11:47:48;1.77;;;0.88;;
41293;SDS011;27037;52.010;4.446;2023-04-03T12:24:29;1.00;;;0.60;;
41293;SDS011;27037;52.010;4.446;2023-04-03T12:32:26;1.00;;;0.50;;
41293;SDS011;27037;52.010;4.446;2023-04-03T12:44:04;1.00;;;0.60;;
41293;SDS011;27037;52.010;4.446;2023-04-03T12:46:52;2.30;;;0.70;;
41293;SDS011;27037;52.010;4.446;2023-04-03T12:52:02;0.75;;;0.60;;
41293;SDS011;27037;52.010;4.446;2023-04-03T12:54:38;1.35;;;0.63;;
41293;SDS011;27037;52.010;4.446;2023-04-03T12:57:17;1.55;;;0.95;;
41293;SDS011;27037;52.010;4.446;2023-04-03T12:59:45;2.72;;;0.73;;
41293;SDS011;27037;52.010;4.446;2023-04-03T13:04:58;1.83;;;1.00;;
41293;SDS011;27037;52.010;4.446;2023-04-03T13:07:35;1.50;;;0.80;;
41293;SDS011;27037;52.010;4.446;2023-04-03T13:12:35;2.70;;;0.90;;
41293;SDS011;27037;52.010;4.446;2023-04-03T13:15:21;2.25;;;1.00;;
41293;SDS011;27037;52.010;4.446;2023-04-03T13:17:52;1.55;;;1.00;;
41293;SDS011;27037;52.010;4.446;2023-04-03T13:22:49;3.42;;;1.20;;
41293;SDS011;27037;52.010;4.446;2023-04-03T13:25:25;1.30;;;0.82;;
41293;SDS011;27037;52.010;4.446;2023-04-03T13:27:54;2.38;;;1.23;;
41293;SDS011;27037;52.010;4.446;2023-04-03T13:30:23;3.67;;;1.30;;
41293;SDS011;27037;52.010;4.446;2023-04-03T13:32:55;3.67;;;0.90;;
41293;SDS011;27037;52.010;4.446;2023-04-03T13:37:59;3.00;;;0.90;;
41293;SDS011;27037;52.010;4.446;2023-04-03T13:40:28;3.42;;;1.10;;
41293;SDS011;27037;52.010;4.446;2023-04-03T13:42:58;2.72;;;0.90;;
41293;SDS011;27037;52.010;4.446;2023-04-03T13:45:29;1.95;;;1.08;;
41293;SDS011;27037;52.010;4.446;2023-04-03T13:50:50;5.63;;;1.20;;
41293;SDS011;27037;52.010;4.446;2023-04-03T13:53:46;2.30;;;1.10;;
41293;SDS011;27037;52.010;4.446;2023-04-03T13:56:35;1.80;;;0.95;;
41293;SDS011;27037;52.010;4.446;2023-04-03T14:04:17;2.13;;;1.20;;
41293;SDS011;27037;52.010;4.446;2023-04-03T14:06:45;1.58;;;1.00;;
41293;SDS011;27037;52.010;4.446;2023-04-03T14:09:11;2.67;;;1.10;;
41293;SDS011;27037;52.010;4.446;2023-04-03T14:11:38;3.13;;;1.20;;
41293;SDS011;27037;52.010;4.446;2023-04-03T14:14:09;3.70;;;1.30;;
41293;SDS011;27037;52.010;4.446;2023-04-03T14:16:45;2.50;;;1.00;;
41293;SDS011;27037;52.010;4.446;2023-04-03T14:19:21;3.47;;;1.30;;
41293;SDS011;27037;52.010;4.446;2023-04-03T14:21:53;3.35;;;1.40;;
41293;SDS011;27037;52.010;4.446;2023-04-03T14:24:21;4.93;;;1.40;;
41293;SDS011;27037;52.010;4.446;2023-04-03T14:26:48;3.80;;;1.20;;
41293;SDS011;27037;52.010;4.446;2023-04-03T14:29:15;2.85;;;1.20;;
41293;SDS011;27037;52.010;4.446;2023-04-03T14:31:44;3.40;;;1.30;;
41293;SDS011;27037;52.010;4.446;2023-04-03T14:34:14;2.20;;;1.10;;
41293;SDS011;27037;52.010;4.446;2023-04-03T14:36:40;3.10;;;1.23;;
41293;SDS011;27037;52.010;4.446;2023-04-03T14:39:08;3.47;;;1.33;;
41293;SDS011;27037;52.010;4.446;2023-04-03T14:41:40;21.13;;;11.38;;
41293;SDS011;27037;52.010;4.446;2023-04-03T14:44:07;3.35;;;1.60;;
41293;SDS011;27037;52.010;4.446;2023-04-03T14:46:34;2.58;;;1.25;;
41293;SDS011;27037;52.010;4.446;2023-04-03T14:49:02;1.98;;;1.17;;
41293;SDS011;27037;52.010;4.446;2023-04-03T14:51:32;2.75;;;1.30;;
41293;SDS011;27037;52.010;4.446;2023-04-03T14:53:58;2.10;;;1.10;;
41293;SDS011;27037;52.010;4.446;2023-04-03T14:56:25;2.60;;;1.27;;
41293;SDS011;27037;52.010;4.446;2023-04-03T14:58:59;3.97;;;1.33;;
41293;SDS011;27037;52.010;4.446;2023-04-03T15:01:26;3.03;;;1.30;;
41293;SDS011;27037;52.010;4.446;2023-04-03T15:03:53;3.70;;;1.30;;
41293;SDS011;27037;52.010;4.446;2023-04-03T15:06:18;2.25;;;1.25;;
41293;SDS011;27037;52.010;4.446;2023-04-03T15:08:45;2.13;;;1.27;;
41293;SDS011;27037;52.010;4.446;2023-04-03T15:11:12;2.15;;;1.20;;
41293;SDS011;27037;52.010;4.446;2023-04-03T15:13:39;3.83;;;1.20;;
41293;SDS011;27037;52.010;4.446;2023-04-03T15:16:05;3.25;;;1.17;;
41293;SDS011;27037;52.010;4.446;2023-04-03T15:18:40;2.35;;;1.20;;
41293;SDS011;27037;52.010;4.446;2023-04-03T15:21:06;4.30;;;1.48;;
41293;SDS011;27037;52.010;4.446;2023-04-03T15:23:31;3.58;;;1.20;;
41293;SDS011;27037;52.010;4.446;2023-04-03T15:25:57;3.90;;;1.20;;
41293;SDS011;27037;52.010;4.446;2023-04-03T15:31:02;2.50;;;1.30;;
41293;SDS011;27037;52.010;4.446;2023-04-03T15:33:29;2.65;;;1.35;;
41293;SDS011;27037;52.010;4.446;2023-04-03T15:35:55;3.83;;;1.23;;
41293;SDS011;27037;52.010;4.446;2023-04-03T15:38:21;2.65;;;1.15;;
41293;SDS011;27037;52.010;4.446;2023-04-03T15:40:47;2.78;;;1.20;;
41293;SDS011;27037;52.010;4.446;2023-04-03T15:43:13;3.63;;;1.50;;
41293;SDS011;27037;52.010;4.446;2023-04-03T15:45:39;3.17;;;1.40;;
41293;SDS011;27037;52.010;4.446;2023-04-03T15:48:06;2.53;;;1.30;;
41293;SDS011;27037;52.010;4.446;2023-04-03T15:50:33;3.97;;;1.40;;
41293;SDS011;27037;52.010;4.446;2023-04-03T15:52:59;4.25;;;1.30;;
41293;SDS011;27037;52.010;4.446;2023-04-03T15:55:27;7.25;;;1.63;;
41293;SDS011;27037;52.010;4.446;2023-04-03T15:57:57;2.90;;;1.40;;
41293;SDS011;27037;52.010;4.446;2023-04-03T16:00:23;3.30;;;1.20;;
41293;SDS011;27037;52.010;4.446;2023-04-03T16:02:52;5.13;;;1.40;;
41293;SDS011;27037;52.010;4.446;2023-04-03T16:05:22;2.47;;;1.30;;
41293;SDS011;27037;52.010;4.446;2023-04-03T16:07:47;3.40;;;1.67;;
41293;SDS011;27037;52.010;4.446;2023-04-03T16:10:14;5.53;;;2.03;;
41293;SDS011;27037;52.010;4.446;2023-04-03T16:12:42;2.42;;;1.30;;
41293;SDS011;27037;52.010;4.446;2023-04-03T16:15:07;3.22;;;1.50;;
41293;SDS011;27037;52.010;4.446;2023-04-03T16:17:34;3.58;;;1.50;;
41293;SDS011;27037;52.010;4.446;2023-04-03T16:20:02;3.45;;;1.45;;
41293;SDS011;27037;52.010;4.446;2023-04-03T16:22:30;4.55;;;1.52;;
41293;SDS011;27037;52.010;4.446;2023-04-03T16:24:59;3.65;;;1.50;;
41293;SDS011;27037;52.010;4.446;2023-04-03T16:27:25;3.53;;;1.50;;
41293;SDS011;27037;52.010;4.446;2023-04-03T16:29:53;2.35;;;1.50;;
41293;SDS011;27037;52.010;4.446;2023-04-03T16:32:20;3.97;;;1.80;;
41293;SDS011;27037;52.010;4.446;2023-04-03T16:34:46;3.15;;;1.58;;
41293;SDS011;27037;52.010;4.446;2023-04-03T16:37:12;2.72;;;1.60;;
41293;SDS011;27037;52.010;4.446;2023-04-03T16:39:37;3.42;;;1.30;;
41293;SDS011;27037;52.010;4.446;2023-04-03T16:42:03;2.83;;;1.50;;
41293;SDS011;27037;52.010;4.446;2023-04-03T16:44:29;3.25;;;1.42;;
41293;SDS011;27037;52.010;4.446;2023-04-03T16:46:54;5.50;;;1.48;;
41293;SDS011;27037;52.010;4.446;2023-04-03T16:49:20;4.25;;;1.85;;
41293;SDS011;27037;52.010;4.446;2023-04-03T16:51:45;4.00;;;1.50;;
41293;SDS011;27037;52.010;4.446;2023-04-03T16:54:13;5.20;;;1.63;;
41293;SDS011;27037;52.010;4.446;2023-04-03T16:56:38;4.70;;;1.75;;
41293;SDS011;27037;52.010;4.446;2023-04-03T16:59:04;3.50;;;1.60;;
41293;SDS011;27037;52.010;4.446;2023-04-03T17:01:30;4.25;;;1.48;;
41293;SDS011;27037;52.010;4.446;2023-04-03T17:03:56;3.05;;;1.40;;
41293;SDS011;27037;52.010;4.446;2023-04-03T17:06:22;4.85;;;1.90;;
41293;SDS011;27037;52.010;4.446;2023-04-03T17:08:48;4.03;;;1.70;;
41293;SDS011;27037;52.010;4.446;2023-04-03T17:11:15;3.80;;;1.50;;
41293;SDS011;27037;52.010;4.446;2023-04-03T17:13:41;6.55;;;1.70;;